createdAt,value
2022-09-06T00:00:19.705Z,19.30
2022-09-06T00:00:52.566Z,19.30
2022-09-06T00:01:24.541Z,19.30
2022-09-06T00:01:56.466Z,19.30
2022-09-06T00:02:33.014Z,19.30
2022-09-06T00:03:05.111Z,19.30
2022-09-06T00:03:37.155Z,19.30
2022-09-06T00:04:15.037Z,19.20
2022-09-06T00:04:48.165Z,19.20
2022-09-06T00:05:20.103Z,19.20
2022-09-06T00:05:54.562Z,19.20
2022-09-06T00:06:26.449Z,19.20
2022-09-06T00:06:58.304Z,19.20
2022-09-06T00:07:30.592Z,19.20
2022-09-06T00:08:05.478Z,19.20
2022-09-06T00:08:37.581Z,19.20
2022-09-06T00:09:09.428Z,19.10
2022-09-06T00:09:42.278Z,19.10
2022-09-06T00:10:15.053Z,19.10
2022-09-06T00:10:47.235Z,19.10
2022-09-06T00:11:20.439Z,19.10
2022-09-06T00:11:52.284Z,19.10
2022-09-06T00:12:24.645Z,19.10
2022-09-06T00:13:00.903Z,19.10
2022-09-06T00:13:33.229Z,19.10
2022-09-06T00:14:05.194Z,19.10
2022-09-06T00:14:38.017Z,19.00
2022-09-06T00:15:10.661Z,19.10
2022-09-06T00:15:42.657Z,19.10
2022-09-06T00:16:18.608Z,19.10
2022-09-06T00:16:50.565Z,19.10
2022-09-06T00:17:22.537Z,19.10
2022-09-06T00:17:55.420Z,19.10
2022-09-06T00:18:27.394Z,19.10
2022-09-06T00:18:59.647Z,19.00
2022-09-06T00:19:32.589Z,19.00
2022-09-06T00:20:05.527Z,19.00
2022-09-06T00:20:41.296Z,19.00
2022-09-06T00:21:18.215Z,19.00
2022-09-06T00:21:50.115Z,19.00
2022-09-06T00:22:21.986Z,18.90
2022-09-06T00:22:58.893Z,18.90
2022-09-06T00:23:30.895Z,18.90
2022-09-06T00:24:03.852Z,18.90
2022-09-06T00:24:37.250Z,18.90
2022-09-06T00:25:09.803Z,18.90
2022-09-06T00:25:41.797Z,18.90
2022-09-06T00:26:15.111Z,18.90
2022-09-06T00:26:47.020Z,18.90
2022-09-06T00:27:18.905Z,18.90
2022-09-06T00:27:54.194Z,19.00
2022-09-06T00:28:27.065Z,18.90
2022-09-06T00:28:59.048Z,18.90
2022-09-06T00:29:30.908Z,18.90
2022-09-06T00:30:05.415Z,18.90
2022-09-06T00:30:37.329Z,18.90
2022-09-06T00:31:10.630Z,18.90
2022-09-06T00:31:43.509Z,18.90
2022-09-06T00:32:15.409Z,18.90
2022-09-06T00:32:47.388Z,18.90
2022-09-06T00:33:19.490Z,18.90
2022-09-06T00:33:53.179Z,18.90
2022-09-06T00:34:25.129Z,18.80
2022-09-06T00:34:57.118Z,18.80
2022-09-06T00:35:30.168Z,18.80
2022-09-06T00:36:02.376Z,18.80
2022-09-06T00:36:35.703Z,18.80
2022-09-06T00:37:08.528Z,18.80
2022-09-06T00:37:40.418Z,18.80
2022-09-06T00:38:12.380Z,18.70
2022-09-06T00:38:45.662Z,18.70
2022-09-06T00:39:17.555Z,18.90
2022-09-06T00:39:49.459Z,18.80
2022-09-06T00:40:22.338Z,18.80
2022-09-06T00:40:54.210Z,18.80
2022-09-06T00:41:26.190Z,18.80
2022-09-06T00:41:59.039Z,18.80
2022-09-06T00:42:30.915Z,18.80
2022-09-06T00:43:03.052Z,18.80
2022-09-06T00:43:36.042Z,18.80
2022-09-06T00:44:07.962Z,18.80
2022-09-06T00:44:40.283Z,18.80
2022-09-06T00:45:13.434Z,18.80
2022-09-06T00:45:45.429Z,18.80
2022-09-06T00:46:20.938Z,18.80
2022-09-06T00:46:55.740Z,18.80
2022-09-06T00:47:28.714Z,18.80
2022-09-06T00:48:04.651Z,18.70
2022-09-06T00:48:39.705Z,18.80
2022-09-06T00:49:16.950Z,18.80
2022-09-06T00:49:54.293Z,18.70
2022-09-06T00:50:26.856Z,18.80
2022-09-06T00:51:02.108Z,18.80
2022-09-06T00:51:37.338Z,18.80
2022-09-06T00:52:12.738Z,18.70
2022-09-06T00:52:47.270Z,18.70
2022-09-06T00:53:20.901Z,18.70
2022-09-06T00:53:52.904Z,18.70
2022-09-06T00:54:24.932Z,18.70
2022-09-06T00:54:57.177Z,18.70
2022-09-06T00:55:30.595Z,18.70
2022-09-06T00:56:03.039Z,18.70
2022-09-06T00:56:41.757Z,18.70
2022-09-06T00:57:15.597Z,18.70
2022-09-06T00:57:50.949Z,18.70
2022-09-06T00:58:23.823Z,18.70
2022-09-06T00:58:55.748Z,18.70
2022-09-06T00:59:30.741Z,18.70
2022-09-06T01:00:04.661Z,18.70
2022-09-06T01:00:36.726Z,18.70
2022-09-06T01:01:09.710Z,18.70
2022-09-06T01:01:42.353Z,18.70
2022-09-06T01:02:14.495Z,18.70
2022-09-06T01:02:47.039Z,18.70
2022-09-06T01:03:20.742Z,18.70
2022-09-06T01:03:52.800Z,18.70
2022-09-06T01:04:26.034Z,18.70
2022-09-06T01:04:59.073Z,18.70
2022-09-06T01:05:39.148Z,18.70
2022-09-06T01:06:24.510Z,18.70
2022-09-06T01:07:06.922Z,18.60
2022-09-06T01:07:58.376Z,18.60
2022-09-06T01:08:44.781Z,18.60
2022-09-06T01:09:29.790Z,18.50
2022-09-06T01:10:19.254Z,18.50
2022-09-06T01:11:04.816Z,18.50
2022-09-06T01:12:00.775Z,18.50
2022-09-06T01:12:45.245Z,18.40
2022-09-06T01:13:28.997Z,18.40
2022-09-06T01:14:10.659Z,18.40
2022-09-06T01:14:57.768Z,18.30
2022-09-06T01:15:35.620Z,18.30
2022-09-06T01:16:14.636Z,18.30
2022-09-06T01:16:54.596Z,18.30
2022-09-06T01:17:35.345Z,18.40
2022-09-06T01:18:20.613Z,18.30
2022-09-06T01:19:29.392Z,18.40
2022-09-06T01:20:28.389Z,18.30
2022-09-06T01:21:14.635Z,18.30
2022-09-06T01:21:54.232Z,18.30
2022-09-06T01:22:58.459Z,18.20
2022-09-06T01:24:22.406Z,18.20
2022-09-06T01:25:03.740Z,18.20
2022-09-06T01:25:44.848Z,18.20
2022-09-06T01:26:50.741Z,18.20
2022-09-06T01:27:41.577Z,18.20
2022-09-06T01:28:32.124Z,18.10
2022-09-06T01:29:07.272Z,18.10
2022-09-06T01:29:45.365Z,18.10
2022-09-06T01:30:20.541Z,18.10
2022-09-06T01:31:00.275Z,18.10
2022-09-06T01:31:35.415Z,18.10
2022-09-06T01:32:14.644Z,18.20
2022-09-06T01:32:55.448Z,18.20
2022-09-06T01:33:35.219Z,18.20
2022-09-06T01:34:22.483Z,18.20
2022-09-06T01:35:02.046Z,18.20
2022-09-06T01:35:41.148Z,18.20
2022-09-06T01:36:18.399Z,18.10
2022-09-06T01:37:09.358Z,18.10
2022-09-06T01:37:43.420Z,18.10
2022-09-06T01:38:16.604Z,18.10
2022-09-06T01:38:49.058Z,18.10
2022-09-06T01:39:25.477Z,18.10
2022-09-06T01:39:57.504Z,18.10
2022-09-06T01:40:29.853Z,18.10
2022-09-06T01:41:02.859Z,18.10
2022-09-06T01:41:34.730Z,18.10
2022-09-06T01:42:10.647Z,18.10
2022-09-06T01:42:47.281Z,18.10
2022-09-06T01:43:23.522Z,18.10
2022-09-06T01:43:56.586Z,18.10
2022-09-06T01:44:30.661Z,18.10
2022-09-06T01:45:08.950Z,18.10
2022-09-06T01:45:57.439Z,18.40
2022-09-06T01:46:39.322Z,18.10
2022-09-06T01:47:28.550Z,18.10
2022-09-06T01:48:09.929Z,18.10
2022-09-06T01:49:16.069Z,18.10
2022-09-06T01:50:03.782Z,18.10
2022-09-06T01:50:46.110Z,18.00
2022-09-06T01:51:28.738Z,18.00
2022-09-06T01:52:12.796Z,18.00
2022-09-06T01:53:04.920Z,18.00
2022-09-06T01:53:57.176Z,18.00
2022-09-06T01:54:43.073Z,18.00
2022-09-06T01:55:22.974Z,18.00
2022-09-06T01:56:00.298Z,17.90
2022-09-06T01:56:42.637Z,17.90
2022-09-06T01:57:26.089Z,17.90
2022-09-06T01:58:18.854Z,17.90
2022-09-06T01:59:13.769Z,17.90
2022-09-06T02:00:00.685Z,17.90
2022-09-06T02:00:40.675Z,17.90
2022-09-06T02:01:22.867Z,17.90
2022-09-06T02:02:02.255Z,17.90
2022-09-06T02:02:48.387Z,17.90
2022-09-06T02:03:29.058Z,17.90
2022-09-06T02:04:09.406Z,17.90
2022-09-06T02:04:47.075Z,17.90
2022-09-06T02:05:25.929Z,17.90
2022-09-06T02:06:05.359Z,17.90
2022-09-06T02:06:42.689Z,17.90
2022-09-06T02:07:19.694Z,17.90
2022-09-06T02:07:55.851Z,17.90
2022-09-06T02:08:33.358Z,17.90
2022-09-06T02:09:09.200Z,18.00
2022-09-06T02:09:43.629Z,18.00
2022-09-06T02:10:19.793Z,17.90
2022-09-06T02:10:55.389Z,17.90
2022-09-06T02:11:29.214Z,17.90
2022-09-06T02:12:05.153Z,18.00
2022-09-06T02:12:40.652Z,18.00
2022-09-06T02:13:15.634Z,18.00
2022-09-06T02:13:53.347Z,18.00
2022-09-06T02:14:31.291Z,18.00
2022-09-06T02:15:08.312Z,18.00
2022-09-06T02:15:44.580Z,18.00
2022-09-06T02:16:20.632Z,18.00
2022-09-06T02:16:55.754Z,18.00
2022-09-06T02:17:32.742Z,18.00
2022-09-06T02:18:08.869Z,18.00
2022-09-06T02:18:45.382Z,18.00
2022-09-06T02:19:23.129Z,18.00
2022-09-06T02:19:59.652Z,18.00
2022-09-06T02:20:35.874Z,18.00
2022-09-06T02:21:10.400Z,18.00
2022-09-06T02:21:45.690Z,18.00
2022-09-06T02:22:24.129Z,18.00
2022-09-06T02:22:59.862Z,18.10
2022-09-06T02:23:36.422Z,18.00
2022-09-06T02:24:14.968Z,18.00
2022-09-06T02:24:49.854Z,18.00
2022-09-06T02:25:24.708Z,18.00
2022-09-06T02:26:02.992Z,17.90
2022-09-06T02:26:39.005Z,17.90
2022-09-06T02:27:11.904Z,18.00
2022-09-06T02:27:43.804Z,18.00
2022-09-06T02:28:19.161Z,17.90
2022-09-06T02:28:51.408Z,18.00
2022-09-06T02:29:23.975Z,18.00
2022-09-06T02:29:56.858Z,18.10
2022-09-06T02:30:29.161Z,18.00
2022-09-06T02:31:05.398Z,18.00
2022-09-06T02:31:43.353Z,18.00
2022-09-06T02:32:19.018Z,18.00
2022-09-06T02:32:57.380Z,18.00
2022-09-06T02:33:33.101Z,18.00
2022-09-06T02:34:05.764Z,17.90
2022-09-06T02:34:38.573Z,17.90
2022-09-06T02:35:15.909Z,17.90
2022-09-06T02:35:49.661Z,17.90
2022-09-06T02:36:21.838Z,17.90
2022-09-06T02:36:56.089Z,17.90
2022-09-06T02:37:28.034Z,17.90
2022-09-06T02:38:00.009Z,17.90
2022-09-06T02:38:34.563Z,17.90
2022-09-06T02:39:07.749Z,17.90
2022-09-06T02:39:39.727Z,17.90
2022-09-06T02:40:12.162Z,17.90
2022-09-06T02:40:46.530Z,17.90
2022-09-06T02:41:22.628Z,17.90
2022-09-06T02:41:55.099Z,17.90
2022-09-06T02:42:28.310Z,17.90
2022-09-06T02:43:00.780Z,17.90
2022-09-06T02:43:34.032Z,17.90
2022-09-06T02:44:06.897Z,17.90
2022-09-06T02:44:38.752Z,17.90
2022-09-06T02:45:10.877Z,17.90
2022-09-06T02:45:43.773Z,17.90
2022-09-06T02:46:16.028Z,17.90
2022-09-06T02:46:47.957Z,17.90
2022-09-06T02:47:20.771Z,18.00
2022-09-06T02:47:52.608Z,17.90
2022-09-06T02:48:24.489Z,18.00
2022-09-06T02:48:57.781Z,17.90
2022-09-06T02:49:30.111Z,17.90
2022-09-06T02:50:01.984Z,17.90
2022-09-06T02:50:34.977Z,17.90
2022-09-06T02:51:08.425Z,17.90
2022-09-06T02:51:40.499Z,17.90
2022-09-06T02:52:13.394Z,18.00
2022-09-06T02:52:45.224Z,17.90
2022-09-06T02:53:17.531Z,17.90
2022-09-06T02:53:50.503Z,18.00
2022-09-06T02:54:22.400Z,17.90
2022-09-06T02:54:55.064Z,17.90
2022-09-06T02:55:26.980Z,18.00
2022-09-06T02:55:59.802Z,18.00
2022-09-06T02:56:33.602Z,18.00
2022-09-06T02:57:05.627Z,17.90
2022-09-06T02:57:38.458Z,17.90
2022-09-06T02:58:11.561Z,18.00
2022-09-06T02:58:44.883Z,18.00
2022-09-06T02:59:16.850Z,18.00
2022-09-06T02:59:49.722Z,17.90
2022-09-06T03:00:21.566Z,18.00
2022-09-06T03:00:53.610Z,17.90
2022-09-06T03:01:26.584Z,18.00
2022-09-06T03:01:58.536Z,18.00
2022-09-06T03:02:30.584Z,18.00
2022-09-06T03:03:03.445Z,17.90
2022-09-06T03:03:35.437Z,18.00
2022-09-06T03:04:08.449Z,18.00
2022-09-06T03:04:41.436Z,18.00
2022-09-06T03:05:13.573Z,18.00
2022-09-06T03:05:47.479Z,18.00
2022-09-06T03:06:20.374Z,18.00
2022-09-06T03:06:52.260Z,18.00
2022-09-06T03:07:24.165Z,18.00
2022-09-06T03:07:57.673Z,18.00
2022-09-06T03:08:33.348Z,17.90
2022-09-06T03:09:05.212Z,17.90
2022-09-06T03:09:38.113Z,17.90
2022-09-06T03:10:10.585Z,17.90
2022-09-06T03:10:47.809Z,17.90
2022-09-06T03:11:19.744Z,17.90
2022-09-06T03:11:52.828Z,17.80
2022-09-06T03:12:24.706Z,17.80
2022-09-06T03:12:56.776Z,17.80
2022-09-06T03:13:30.453Z,17.80
2022-09-06T03:14:03.645Z,17.80
2022-09-06T03:14:36.112Z,17.80
2022-09-06T03:15:10.007Z,17.80
2022-09-06T03:15:41.972Z,17.80
2022-09-06T03:16:13.916Z,17.80
2022-09-06T03:16:46.914Z,17.80
2022-09-06T03:17:18.823Z,17.80
2022-09-06T03:17:50.709Z,17.80
2022-09-06T03:18:23.778Z,17.80
2022-09-06T03:18:55.644Z,17.90
2022-09-06T03:19:27.491Z,17.90
2022-09-06T03:20:00.304Z,17.90
2022-09-06T03:20:36.828Z,17.90
2022-09-06T03:21:09.057Z,17.90
2022-09-06T03:21:42.107Z,17.90
2022-09-06T03:22:14.084Z,17.90
2022-09-06T03:22:45.985Z,17.90
2022-09-06T03:23:19.250Z,17.90
2022-09-06T03:23:51.092Z,17.90
2022-09-06T03:24:23.914Z,17.90
2022-09-06T03:24:55.808Z,17.90
2022-09-06T03:25:27.864Z,17.90
2022-09-06T03:25:59.721Z,17.90
2022-09-06T03:26:32.736Z,17.90
2022-09-06T03:27:05.269Z,17.90
2022-09-06T03:27:37.533Z,18.00
2022-09-06T03:28:10.377Z,17.90
2022-09-06T03:28:43.053Z,18.00
2022-09-06T03:29:16.309Z,17.90
2022-09-06T03:29:49.168Z,17.90
2022-09-06T03:30:21.029Z,18.00
2022-09-06T03:30:53.448Z,18.00
2022-09-06T03:31:25.393Z,18.00
2022-09-06T03:31:58.188Z,18.00
2022-09-06T03:32:30.061Z,17.90
2022-09-06T03:33:02.950Z,17.90
2022-09-06T03:33:36.021Z,17.90
2022-09-06T03:34:10.951Z,17.90
2022-09-06T03:34:43.129Z,18.00
2022-09-06T03:35:16.088Z,18.00
2022-09-06T03:35:49.241Z,17.90
2022-09-06T03:36:22.248Z,17.90
2022-09-06T03:36:54.102Z,18.00
2022-09-06T03:37:26.041Z,17.90
2022-09-06T03:37:58.873Z,18.10
2022-09-06T03:38:30.862Z,17.90
2022-09-06T03:39:02.800Z,18.00
2022-09-06T03:39:35.908Z,18.00
2022-09-06T03:40:09.354Z,17.90
2022-09-06T03:40:43.680Z,17.90
2022-09-06T03:41:16.592Z,17.90
2022-09-06T03:41:48.517Z,18.00
2022-09-06T03:42:20.453Z,18.00
2022-09-06T03:42:52.363Z,17.90
2022-09-06T03:43:26.409Z,17.90
2022-09-06T03:43:58.350Z,17.90
2022-09-06T03:44:31.669Z,17.90
2022-09-06T03:45:05.702Z,17.90
2022-09-06T03:45:37.602Z,17.90
2022-09-06T03:46:09.603Z,17.90
2022-09-06T03:46:41.510Z,17.90
2022-09-06T03:47:18.748Z,17.90
2022-09-06T03:47:51.440Z,17.80
2022-09-06T03:48:25.128Z,17.80
2022-09-06T03:48:58.480Z,17.80
2022-09-06T03:49:30.428Z,17.80
2022-09-06T03:50:02.344Z,17.80
2022-09-06T03:50:35.179Z,17.80
2022-09-06T03:51:07.159Z,17.80
2022-09-06T03:51:39.073Z,17.80
2022-09-06T03:52:11.976Z,17.80
2022-09-06T03:52:43.821Z,17.80
2022-09-06T03:53:16.378Z,17.80
2022-09-06T03:53:49.287Z,17.80
2022-09-06T03:54:21.191Z,17.80
2022-09-06T03:54:53.100Z,17.80
2022-09-06T03:55:25.934Z,17.80
2022-09-06T03:55:58.408Z,17.80
2022-09-06T03:56:30.313Z,17.80
2022-09-06T03:57:02.271Z,17.80
2022-09-06T03:57:35.141Z,17.80
2022-09-06T03:58:07.122Z,17.80
2022-09-06T03:58:38.961Z,17.80
2022-09-06T03:59:10.829Z,17.70
2022-09-06T03:59:44.981Z,17.80
2022-09-06T04:00:16.986Z,17.70
2022-09-06T04:00:49.272Z,17.70
2022-09-06T04:01:22.227Z,17.70
2022-09-06T04:01:54.215Z,17.70
2022-09-06T04:02:26.162Z,17.70
2022-09-06T04:03:01.590Z,17.70
2022-09-06T04:03:35.660Z,17.80
2022-09-06T04:04:07.520Z,17.70
2022-09-06T04:04:39.517Z,17.70
2022-09-06T04:05:13.261Z,17.70
2022-09-06T04:05:45.812Z,17.60
2022-09-06T04:06:17.766Z,17.60
2022-09-06T04:06:50.684Z,17.60
2022-09-06T04:07:22.664Z,17.60
2022-09-06T04:07:54.548Z,17.60
2022-09-06T04:08:27.861Z,17.60
2022-09-06T04:08:59.867Z,17.60
2022-09-06T04:09:31.894Z,17.50
2022-09-06T04:10:05.256Z,17.50
2022-09-06T04:10:38.092Z,17.50
2022-09-06T04:11:10.184Z,17.50
2022-09-06T04:11:45.154Z,17.50
2022-09-06T04:12:17.157Z,17.50
2022-09-06T04:12:49.020Z,17.50
2022-09-06T04:13:23.004Z,17.50
2022-09-06T04:13:54.892Z,17.50
2022-09-06T04:14:26.767Z,17.50
2022-09-06T04:15:00.908Z,17.50
2022-09-06T04:15:32.753Z,17.50
2022-09-06T04:16:05.686Z,17.50
2022-09-06T04:16:38.623Z,17.50
2022-09-06T04:17:10.550Z,17.50
2022-09-06T04:17:45.204Z,17.50
2022-09-06T04:18:18.422Z,17.50
2022-09-06T04:18:50.464Z,17.70
2022-09-06T04:19:22.350Z,17.50
2022-09-06T04:19:55.191Z,17.50
2022-09-06T04:20:27.063Z,17.50
2022-09-06T04:20:59.245Z,17.50
2022-09-06T04:21:32.269Z,17.50
2022-09-06T04:22:04.131Z,17.50
2022-09-06T04:22:36.006Z,17.50
2022-09-06T04:23:08.304Z,17.50
2022-09-06T04:23:41.279Z,17.50
2022-09-06T04:24:13.131Z,17.50
2022-09-06T04:24:45.032Z,17.50
2022-09-06T04:25:17.974Z,17.50
2022-09-06T04:25:51.971Z,17.50
2022-09-06T04:26:23.999Z,17.60
2022-09-06T04:26:56.864Z,17.50
2022-09-06T04:27:28.725Z,17.50
2022-09-06T04:28:00.572Z,17.50
2022-09-06T04:28:33.496Z,17.50
2022-09-06T04:29:05.345Z,17.50
2022-09-06T04:29:37.250Z,17.50
2022-09-06T04:30:12.059Z,17.50
2022-09-06T04:30:43.982Z,17.50
2022-09-06T04:31:15.876Z,17.50
2022-09-06T04:31:48.731Z,17.50
2022-09-06T04:32:20.645Z,17.50
2022-09-06T04:32:52.490Z,17.50
2022-09-06T04:33:26.272Z,17.50
2022-09-06T04:33:58.175Z,17.50
2022-09-06T04:34:30.065Z,17.50
2022-09-06T04:35:03.139Z,17.60
2022-09-06T04:35:35.047Z,17.60
2022-09-06T04:36:09.070Z,17.60
2022-09-06T04:36:45.410Z,17.60
2022-09-06T04:37:20.075Z,17.60
2022-09-06T04:37:51.942Z,17.60
2022-09-06T04:38:25.566Z,17.60
2022-09-06T04:38:57.525Z,17.60
2022-09-06T04:39:30.403Z,17.60
2022-09-06T04:40:02.735Z,17.60
2022-09-06T04:40:34.677Z,17.60
2022-09-06T04:41:08.107Z,17.60
2022-09-06T04:41:40.058Z,17.60
2022-09-06T04:42:11.936Z,17.60
2022-09-06T04:42:44.803Z,17.60
2022-09-06T04:43:16.806Z,17.60
2022-09-06T04:43:49.044Z,17.80
2022-09-06T04:44:21.861Z,17.60
2022-09-06T04:44:53.772Z,17.60
2022-09-06T04:45:27.180Z,17.60
2022-09-06T04:46:04.833Z,17.60
2022-09-06T04:46:36.961Z,17.60
2022-09-06T04:47:14.611Z,17.60
2022-09-06T04:47:47.946Z,17.60
2022-09-06T04:48:19.955Z,17.60
2022-09-06T04:48:54.145Z,17.60
2022-09-06T04:49:26.067Z,17.60
2022-09-06T04:49:57.951Z,17.60
2022-09-06T04:50:30.889Z,17.60
2022-09-06T04:51:02.814Z,17.50
2022-09-06T04:51:37.266Z,17.50
2022-09-06T04:52:09.562Z,17.50
2022-09-06T04:52:41.416Z,17.50
2022-09-06T04:53:14.269Z,17.50
2022-09-06T04:53:46.749Z,17.50
2022-09-06T04:54:18.565Z,17.50
2022-09-06T04:54:51.392Z,17.50
2022-09-06T04:55:23.260Z,17.50
2022-09-06T04:55:57.147Z,17.50
2022-09-06T04:56:30.110Z,17.60
2022-09-06T04:57:02.219Z,17.60
2022-09-06T04:57:34.100Z,17.60
2022-09-06T04:58:07.268Z,17.50
2022-09-06T04:58:39.135Z,17.60
2022-09-06T04:59:10.990Z,17.60
2022-09-06T04:59:43.809Z,17.60
2022-09-06T05:00:15.943Z,17.60
2022-09-06T05:00:49.215Z,17.60
2022-09-06T05:01:23.063Z,17.60
2022-09-06T05:01:55.038Z,17.60
2022-09-06T05:02:26.932Z,17.60
2022-09-06T05:03:00.125Z,17.60
2022-09-06T05:03:31.994Z,17.60
2022-09-06T05:04:03.843Z,17.60
2022-09-06T05:04:36.729Z,17.70
2022-09-06T05:05:09.182Z,17.60
2022-09-06T05:05:41.030Z,17.60
2022-09-06T05:06:19.120Z,17.70
2022-09-06T05:06:59.136Z,17.70
2022-09-06T05:07:31.268Z,17.70
2022-09-06T05:08:04.586Z,17.70
2022-09-06T05:08:38.103Z,17.70
2022-09-06T05:09:10.335Z,17.70
2022-09-06T05:09:43.150Z,17.70
2022-09-06T05:10:15.205Z,17.70
2022-09-06T05:10:48.483Z,17.70
2022-09-06T05:11:22.084Z,17.70
2022-09-06T05:11:54.422Z,17.70
2022-09-06T05:12:26.481Z,17.80
2022-09-06T05:12:59.298Z,17.80
2022-09-06T05:13:31.206Z,17.80
2022-09-06T05:14:03.109Z,17.80
2022-09-06T05:14:36.278Z,17.80
2022-09-06T05:15:09.422Z,17.80
2022-09-06T05:15:41.317Z,17.80
2022-09-06T05:16:15.515Z,17.80
2022-09-06T05:16:47.527Z,17.90
2022-09-06T05:17:19.423Z,17.90
2022-09-06T05:17:52.304Z,17.90
2022-09-06T05:18:24.222Z,17.90
2022-09-06T05:18:56.092Z,17.90
2022-09-06T05:19:28.919Z,17.90
2022-09-06T05:20:00.838Z,17.90
2022-09-06T05:20:32.768Z,17.90
2022-09-06T05:21:05.792Z,17.90
2022-09-06T05:21:37.639Z,17.90
2022-09-06T05:22:11.242Z,17.90
2022-09-06T05:22:44.072Z,17.90
2022-09-06T05:23:15.979Z,17.90
2022-09-06T05:23:47.884Z,17.90
2022-09-06T05:24:20.705Z,17.90
2022-09-06T05:24:52.678Z,17.90
2022-09-06T05:25:24.662Z,17.90
2022-09-06T05:25:57.499Z,17.90
2022-09-06T05:26:29.341Z,17.90
2022-09-06T05:27:04.314Z,17.90
2022-09-06T05:27:37.575Z,17.90
2022-09-06T05:28:09.448Z,18.00
2022-09-06T05:28:41.317Z,18.00
2022-09-06T05:29:14.224Z,18.00
2022-09-06T05:29:46.202Z,18.00
2022-09-06T05:30:18.312Z,17.90
2022-09-06T05:30:51.281Z,18.00
2022-09-06T05:31:27.957Z,18.00
2022-09-06T05:32:00.167Z,17.90
2022-09-06T05:32:33.021Z,17.90
2022-09-06T05:33:05.018Z,18.00
2022-09-06T05:33:37.243Z,18.00
2022-09-06T05:34:10.416Z,18.00
2022-09-06T05:34:42.387Z,18.00
2022-09-06T05:35:14.659Z,18.00
2022-09-06T05:35:48.362Z,18.00
2022-09-06T05:36:20.497Z,18.00
2022-09-06T05:36:53.387Z,18.00
2022-09-06T05:37:26.393Z,18.00
2022-09-06T05:37:58.288Z,18.00
2022-09-06T05:38:30.357Z,18.00
2022-09-06T05:39:03.449Z,18.00
2022-09-06T05:39:35.500Z,18.00
2022-09-06T05:40:08.517Z,18.00
2022-09-06T05:40:41.557Z,18.00
2022-09-06T05:41:13.414Z,17.90
2022-09-06T05:41:45.280Z,17.90
2022-09-06T05:42:19.380Z,17.90
2022-09-06T05:42:51.413Z,17.90
2022-09-06T05:43:23.352Z,17.90
2022-09-06T05:43:56.192Z,17.90
2022-09-06T05:44:28.129Z,17.90
2022-09-06T05:45:00.119Z,17.90
2022-09-06T05:45:33.018Z,17.80
2022-09-06T05:46:05.228Z,17.80
2022-09-06T05:46:43.568Z,17.80
2022-09-06T05:47:16.423Z,17.80
2022-09-06T05:47:48.314Z,17.70
2022-09-06T05:48:20.218Z,17.70
2022-09-06T05:48:54.382Z,17.70
2022-09-06T05:49:26.254Z,17.70
2022-09-06T05:49:59.989Z,17.70
2022-09-06T05:50:33.032Z,17.70
2022-09-06T05:51:06.984Z,17.70
2022-09-06T05:51:39.166Z,17.70
2022-09-06T05:52:11.977Z,17.70
2022-09-06T05:52:43.856Z,17.80
2022-09-06T05:53:15.727Z,17.70
2022-09-06T05:53:48.761Z,17.70
2022-09-06T05:54:20.633Z,17.70
2022-09-06T05:54:52.546Z,17.70
2022-09-06T05:55:25.425Z,17.70
2022-09-06T05:55:57.284Z,17.70
2022-09-06T05:56:29.649Z,17.70
2022-09-06T05:57:02.472Z,17.80
2022-09-06T05:57:34.410Z,17.80
2022-09-06T05:58:06.466Z,17.80
2022-09-06T05:58:39.801Z,17.80
2022-09-06T05:59:11.658Z,17.80
2022-09-06T05:59:43.507Z,17.80
2022-09-06T06:00:16.674Z,17.70
2022-09-06T06:00:48.582Z,17.70
2022-09-06T06:01:22.035Z,17.70
2022-09-06T06:01:56.331Z,17.70
2022-09-06T06:02:28.232Z,17.70
2022-09-06T06:03:00.117Z,17.70
2022-09-06T06:03:32.945Z,17.80
2022-09-06T06:04:05.512Z,17.80
2022-09-06T06:04:37.390Z,17.80
2022-09-06T06:05:10.394Z,17.70
2022-09-06T06:05:46.722Z,17.70
2022-09-06T06:06:19.065Z,17.70
2022-09-06T06:06:52.235Z,17.70
2022-09-06T06:07:24.589Z,17.70
2022-09-06T06:07:58.041Z,17.70
2022-09-06T06:08:30.865Z,17.70
2022-09-06T06:09:02.755Z,17.80
2022-09-06T06:09:34.623Z,17.80
2022-09-06T06:10:08.090Z,17.80
2022-09-06T06:10:40.581Z,17.80
2022-09-06T06:11:12.757Z,17.90
2022-09-06T06:11:45.597Z,17.90
2022-09-06T06:12:17.442Z,17.90
2022-09-06T06:12:50.276Z,17.90
2022-09-06T06:13:22.148Z,17.90
2022-09-06T06:13:54.200Z,17.90
2022-09-06T06:14:27.042Z,17.90
2022-09-06T06:14:58.890Z,17.90
2022-09-06T06:15:32.320Z,18.00
2022-09-06T06:16:05.579Z,18.00
2022-09-06T06:16:37.559Z,18.00
2022-09-06T06:17:10.787Z,18.00
2022-09-06T06:17:43.632Z,18.00
2022-09-06T06:18:15.541Z,18.00
2022-09-06T06:18:51.705Z,18.00
2022-09-06T06:19:26.554Z,18.00
2022-09-06T06:19:58.417Z,18.00
2022-09-06T06:20:30.322Z,18.10
2022-09-06T06:21:10.740Z,18.00
2022-09-06T06:21:43.617Z,18.00
2022-09-06T06:22:16.517Z,18.10
2022-09-06T06:22:48.366Z,18.10
2022-09-06T06:23:20.212Z,18.10
2022-09-06T06:23:55.381Z,18.10
2022-09-06T06:24:27.270Z,18.20
2022-09-06T06:25:00.121Z,18.10
2022-09-06T06:25:31.949Z,18.10
2022-09-06T06:26:03.868Z,18.10
2022-09-06T06:26:37.900Z,18.10
2022-09-06T06:27:09.790Z,18.10
2022-09-06T06:27:41.620Z,18.20
2022-09-06T06:28:14.447Z,18.20
2022-09-06T06:28:46.581Z,18.20
2022-09-06T06:29:19.475Z,18.30
2022-09-06T06:29:52.624Z,18.30
2022-09-06T06:30:24.493Z,18.30
2022-09-06T06:30:56.347Z,18.40
2022-09-06T06:31:29.299Z,18.30
2022-09-06T06:32:01.228Z,18.40
2022-09-06T06:32:34.525Z,18.40
2022-09-06T06:33:07.397Z,18.40
2022-09-06T06:33:39.845Z,18.40
2022-09-06T06:34:11.753Z,18.40
2022-09-06T06:34:44.568Z,18.50
2022-09-06T06:35:16.585Z,18.50
2022-09-06T06:35:57.630Z,18.50
2022-09-06T06:36:31.594Z,18.50
2022-09-06T06:37:03.442Z,18.60
2022-09-06T06:37:35.352Z,18.60
2022-09-06T06:38:08.237Z,18.60
2022-09-06T06:38:41.718Z,18.60
2022-09-06T06:39:14.742Z,18.60
2022-09-06T06:39:46.696Z,18.60
2022-09-06T06:40:18.586Z,18.60
2022-09-06T06:40:51.700Z,18.60
2022-09-06T06:41:27.984Z,18.60
2022-09-06T06:41:59.914Z,18.70
2022-09-06T06:42:32.728Z,18.70
2022-09-06T06:43:04.630Z,18.70
2022-09-06T06:43:37.638Z,18.80
2022-09-06T06:44:10.458Z,18.80
2022-09-06T06:44:42.634Z,18.80
2022-09-06T06:45:14.519Z,18.80
2022-09-06T06:45:50.191Z,18.90
2022-09-06T06:46:23.443Z,18.90
2022-09-06T06:46:57.823Z,18.90
2022-09-06T06:47:31.262Z,18.90
2022-09-06T06:48:04.800Z,19.00
2022-09-06T06:48:37.073Z,19.00
2022-09-06T06:49:09.929Z,19.00
2022-09-06T06:49:41.811Z,19.00
2022-09-06T06:50:13.774Z,19.00
2022-09-06T06:50:46.677Z,19.10
2022-09-06T06:51:19.696Z,19.10
2022-09-06T06:51:51.671Z,19.10
2022-09-06T06:52:24.627Z,19.10
2022-09-06T06:52:56.532Z,19.10
2022-09-06T06:53:28.405Z,19.10
2022-09-06T06:54:01.251Z,19.10
2022-09-06T06:54:33.118Z,19.10
2022-09-06T06:55:06.604Z,19.10
2022-09-06T06:55:40.225Z,19.10
2022-09-06T06:56:17.440Z,19.20
2022-09-06T06:56:50.234Z,19.20
2022-09-06T06:57:22.069Z,19.20
2022-09-06T06:57:54.042Z,19.20
2022-09-06T06:58:27.097Z,19.20
2022-09-06T06:59:00.298Z,19.20
2022-09-06T06:59:33.217Z,19.20
2022-09-06T07:00:06.121Z,19.20
2022-09-06T07:00:38.023Z,19.20
2022-09-06T07:01:11.057Z,19.30
2022-09-06T07:01:43.125Z,19.30
2022-09-06T07:02:17.733Z,19.30
2022-09-06T07:02:49.741Z,19.40
2022-09-06T07:03:23.955Z,19.40
2022-09-06T07:03:56.071Z,19.40
2022-09-06T07:04:28.908Z,19.40
2022-09-06T07:05:00.998Z,19.50
2022-09-06T07:07:36.761Z,19.50
2022-09-06T07:08:12.427Z,19.60
2022-09-06T07:08:44.790Z,19.60
2022-09-06T07:09:18.322Z,19.60
2022-09-06T07:10:45.016Z,19.70
2022-09-06T07:11:21.595Z,19.70
2022-09-06T07:11:56.195Z,19.70
2022-09-06T07:12:28.031Z,19.70
2022-09-06T07:13:00.938Z,19.80
2022-09-06T07:13:34.069Z,19.80
2022-09-06T07:14:06.942Z,19.80
2022-09-06T07:14:38.844Z,19.80
2022-09-06T07:15:10.925Z,19.80
2022-09-06T07:15:43.764Z,19.80
2022-09-06T07:16:18.030Z,19.90
2022-09-06T07:16:51.700Z,19.90
2022-09-06T07:17:23.650Z,19.90
2022-09-06T07:17:56.149Z,20.00
2022-09-06T07:18:30.398Z,20.00
2022-09-06T07:19:02.456Z,20.00
2022-09-06T07:20:27.364Z,20.10
2022-09-06T07:21:52.117Z,20.10
2022-09-06T07:22:24.016Z,20.20
2022-09-06T07:24:09.438Z,20.20
2022-09-06T07:24:41.985Z,20.40
2022-09-06T07:25:21.038Z,20.30
2022-09-06T07:25:53.224Z,20.30
2022-09-06T07:26:27.316Z,20.30